sensor_id;sensor_type;location;lat;lon;timestamp;pressure;altitude;pressure_sealevel;temperature;humidity
74090;BME280;62448;-26.094;27.994;2022-09-03T00:00:11;85217.20;;;12.53;12.84
74090;BME280;62448;-26.094;27.994;2022-09-03T00:02:40;85218.62;;;12.54;12.78
74090;BME280;62448;-26.094;27.994;2022-09-03T00:05:04;85219.03;;;12.63;12.81
74090;BME280;62448;-26.094;27.994;2022-09-03T00:07:31;85213.95;;;12.78;12.70
74090;BME280;62448;-26.094;27.994;2022-09-03T00:09:57;85209.21;;;12.21;12.86
74090;BME280;62448;-26.094;27.994;2022-09-03T00:12:20;85207.12;;;12.29;12.80
74090;BME280;62448;-26.094;27.994;2022-09-03T00:14:46;85205.10;;;12.26;12.79
74090;BME280;62448;-26.094;27.994;2022-09-03T00:17:12;85201.90;;;12.65;12.46
74090;BME280;62448;-26.094;27.994;2022-09-03T00:19:36;85199.52;;;12.87;12.17
74090;BME280;62448;-26.094;27.994;2022-09-03T00:22:01;85196.77;;;12.60;12.22
74090;BME280;62448;-26.094;27.994;2022-09-03T00:24:28;85198.60;;;12.60;12.22
74090;BME280;62448;-26.094;27.994;2022-09-03T00:26:52;85198.93;;;13.04;12.07
74090;BME280;62448;-26.094;27.994;2022-09-03T00:29:17;85197.69;;;13.24;12.25
74090;BME280;62448;-26.094;27.994;2022-09-03T00:31:43;85196.40;;;13.11;12.42
74090;BME280;62448;-26.094;27.994;2022-09-03T00:34:10;85197.82;;;12.25;12.68
74090;BME280;62448;-26.094;27.994;2022-09-03T00:36:36;85196.16;;;12.49;12.70
74090;BME280;62448;-26.094;27.994;2022-09-03T00:38:57;85193.71;;;12.28;12.75
74090;BME280;62448;-26.094;27.994;2022-09-03T00:41:30;85195.01;;;12.40;12.77
74090;BME280;62448;-26.094;27.994;2022-09-03T00:44:03;85195.79;;;12.36;12.93
74090;BME280;62448;-26.094;27.994;2022-09-03T00:46:21;85195.61;;;12.42;12.76
74090;BME280;62448;-26.094;27.994;2022-09-03T00:48:50;85198.65;;;12.53;12.81
74090;BME280;62448;-26.094;27.994;2022-09-03T00:51:12;85198.67;;;12.23;12.87
74090;BME280;62448;-26.094;27.994;2022-09-03T00:53:36;85199.96;;;12.54;12.83
74090;BME280;62448;-26.094;27.994;2022-09-03T00:55:59;85197.10;;;12.09;12.80
74090;BME280;62448;-26.094;27.994;2022-09-03T00:58:37;85197.44;;;12.75;12.79
74090;BME280;62448;-26.094;27.994;2022-09-03T01:00:47;85194.61;;;12.21;12.91
74090;BME280;62448;-26.094;27.994;2022-09-03T01:03:18;85194.49;;;12.29;12.88
74090;BME280;62448;-26.094;27.994;2022-09-03T01:05:50;85191.05;;;12.62;12.92
74090;BME280;62448;-26.094;27.994;2022-09-03T01:08:15;85188.54;;;12.37;12.92
74090;BME280;62448;-26.094;27.994;2022-09-03T01:10:32;85185.06;;;12.93;12.82
74090;BME280;62448;-26.094;27.994;2022-09-03T01:13:00;85183.65;;;12.43;12.82
74090;BME280;62448;-26.094;27.994;2022-09-03T01:15:28;85177.59;;;12.30;12.74
74090;BME280;62448;-26.094;27.994;2022-09-03T01:17:55;85176.15;;;12.68;12.44
74090;BME280;62448;-26.094;27.994;2022-09-03T01:20:24;85173.86;;;12.94;12.31
74090;BME280;62448;-26.094;27.994;2022-09-03T01:22:57;85171.33;;;13.11;12.21
74090;BME280;62448;-26.094;27.994;2022-09-03T01:25:14;85172.11;;;12.54;12.13
74090;BME280;62448;-26.094;27.994;2022-09-03T01:27:40;85174.43;;;13.15;12.13
74090;BME280;62448;-26.094;27.994;2022-09-03T01:29:57;85172.97;;;12.46;12.56
74090;BME280;62448;-26.094;27.994;2022-09-03T01:32:24;85169.05;;;12.48;12.66
74090;BME280;62448;-26.094;27.994;2022-09-03T01:34:51;85171.30;;;12.33;12.88
74090;BME280;62448;-26.094;27.994;2022-09-03T01:37:17;85169.18;;;11.95;12.99
74090;BME280;62448;-26.094;27.994;2022-09-03T01:39:41;85168.24;;;12.53;12.91
74090;BME280;62448;-26.094;27.994;2022-09-03T01:42:09;85169.96;;;11.82;12.95
74090;BME280;62448;-26.094;27.994;2022-09-03T01:44:30;85172.85;;;12.44;13.02
74090;BME280;62448;-26.094;27.994;2022-09-03T01:46:57;85171.35;;;12.10;13.11
74090;BME280;62448;-26.094;27.994;2022-09-03T01:49:23;85171.24;;;12.37;12.96
74090;BME280;62448;-26.094;27.994;2022-09-03T01:51:43;85171.18;;;12.10;12.97
74090;BME280;62448;-26.094;27.994;2022-09-03T01:54:24;85169.31;;;11.68;13.07
74090;BME280;62448;-26.094;27.994;2022-09-03T01:56:44;85169.17;;;12.04;13.10
74090;BME280;62448;-26.094;27.994;2022-09-03T01:59:04;85170.77;;;12.38;13.11
74090;BME280;62448;-26.094;27.994;2022-09-03T02:01:28;85167.61;;;12.35;13.08
74090;BME280;62448;-26.094;27.994;2022-09-03T02:03:51;85167.30;;;12.39;13.10
74090;BME280;62448;-26.094;27.994;2022-09-03T02:06:17;85168.27;;;12.35;13.13
74090;BME280;62448;-26.094;27.994;2022-09-03T02:08:41;85167.09;;;12.21;13.20
74090;BME280;62448;-26.094;27.994;2022-09-03T02:11:09;85168.74;;;12.24;13.22
74090;BME280;62448;-26.094;27.994;2022-09-03T02:13:37;85168.23;;;11.81;13.34
74090;BME280;62448;-26.094;27.994;2022-09-03T02:16:01;85166.37;;;11.63;13.01
74090;BME280;62448;-26.094;27.994;2022-09-03T02:18:26;85163.65;;;11.83;12.86
74090;BME280;62448;-26.094;27.994;2022-09-03T02:20:50;85159.58;;;12.88;12.48
74090;BME280;62448;-26.094;27.994;2022-09-03T02:23:15;85159.84;;;12.57;12.51
74090;BME280;62448;-26.094;27.994;2022-09-03T02:25:43;85160.98;;;12.61;12.50
74090;BME280;62448;-26.094;27.994;2022-09-03T02:28:06;85162.18;;;12.60;12.55
74090;BME280;62448;-26.094;27.994;2022-09-03T02:30:31;85161.32;;;11.69;12.95
74090;BME280;62448;-26.094;27.994;2022-09-03T02:32:56;85162.72;;;12.14;12.89
74090;BME280;62448;-26.094;27.994;2022-09-03T02:35:22;85162.05;;;12.55;12.99
74090;BME280;62448;-26.094;27.994;2022-09-03T02:37:47;85164.41;;;11.89;13.18
74090;BME280;62448;-26.094;27.994;2022-09-03T02:40:12;85162.64;;;12.00;13.21
74090;BME280;62448;-26.094;27.994;2022-09-03T02:42:38;85162.89;;;12.12;13.16
74090;BME280;62448;-26.094;27.994;2022-09-03T02:45:15;85162.16;;;11.45;13.18
74090;BME280;62448;-26.094;27.994;2022-09-03T02:47:31;85164.05;;;12.02;13.12
74090;BME280;62448;-26.094;27.994;2022-09-03T02:49:54;85161.82;;;11.67;13.22
74090;BME280;62448;-26.094;27.994;2022-09-03T02:52:19;85161.12;;;12.08;13.07
74090;BME280;62448;-26.094;27.994;2022-09-03T02:54:45;85161.99;;;12.21;13.12
74090;BME280;62448;-26.094;27.994;2022-09-03T02:57:13;85165.44;;;11.67;13.37
74090;BME280;62448;-26.094;27.994;2022-09-03T02:59:36;85167.38;;;10.80;13.46
74090;BME280;62448;-26.094;27.994;2022-09-03T03:02:02;85169.74;;;11.57;13.24
74090;BME280;62448;-26.094;27.994;2022-09-03T03:04:28;85170.30;;;11.89;13.17
74090;BME280;62448;-26.094;27.994;2022-09-03T03:06:52;85177.04;;;11.87;13.26
74090;BME280;62448;-26.094;27.994;2022-09-03T03:09:17;85180.36;;;11.53;13.16
74090;BME280;62448;-26.094;27.994;2022-09-03T03:11:43;85179.52;;;11.06;13.48
74090;BME280;62448;-26.094;27.994;2022-09-03T03:14:08;85180.57;;;12.21;13.21
74090;BME280;62448;-26.094;27.994;2022-09-03T03:16:34;85183.02;;;10.76;13.22
74090;BME280;62448;-26.094;27.994;2022-09-03T03:18:59;85181.59;;;11.66;12.80
74090;BME280;62448;-26.094;27.994;2022-09-03T03:21:24;85183.33;;;12.56;12.46
74090;BME280;62448;-26.094;27.994;2022-09-03T03:23:50;85180.82;;;12.60;12.36
74090;BME280;62448;-26.094;27.994;2022-09-03T03:26:18;85178.38;;;12.47;12.42
74090;BME280;62448;-26.094;27.994;2022-09-03T03:28:41;85179.55;;;12.19;12.68
74090;BME280;62448;-26.094;27.994;2022-09-03T03:31:08;85182.32;;;11.86;12.92
74090;BME280;62448;-26.094;27.994;2022-09-03T03:33:32;85184.23;;;12.13;12.95
74090;BME280;62448;-26.094;27.994;2022-09-03T03:35:57;85186.57;;;11.61;13.14
74090;BME280;62448;-26.094;27.994;2022-09-03T03:38:23;85186.65;;;11.73;13.12
74090;BME280;62448;-26.094;27.994;2022-09-03T03:40:48;85187.70;;;11.71;13.12
74090;BME280;62448;-26.094;27.994;2022-09-03T03:43:14;85192.60;;;11.79;13.09
74090;BME280;62448;-26.094;27.994;2022-09-03T03:45:39;85192.11;;;11.63;13.21
74090;BME280;62448;-26.094;27.994;2022-09-03T03:48:05;85194.36;;;11.83;13.14
74090;BME280;62448;-26.094;27.994;2022-09-03T03:50:30;85198.71;;;11.88;13.12
74090;BME280;62448;-26.094;27.994;2022-09-03T03:52:59;85201.84;;;11.41;13.30
74090;BME280;62448;-26.094;27.994;2022-09-03T03:55:21;85200.04;;;11.71;13.25
74090;BME280;62448;-26.094;27.994;2022-09-03T03:57:46;85200.88;;;11.67;13.16
74090;BME280;62448;-26.094;27.994;2022-09-03T04:00:14;85202.37;;;11.81;13.17
74090;BME280;62448;-26.094;27.994;2022-09-03T04:02:38;85207.49;;;11.22;13.38
74090;BME280;62448;-26.094;27.994;2022-09-03T04:05:04;85208.99;;;11.01;13.26
74090;BME280;62448;-26.094;27.994;2022-09-03T04:07:29;85212.06;;;10.79;13.43
74090;BME280;62448;-26.094;27.994;2022-09-03T04:09:55;85213.46;;;11.31;13.55
74090;BME280;62448;-26.094;27.994;2022-09-03T04:12:20;85217.75;;;11.55;13.81
74090;BME280;62448;-26.094;27.994;2022-09-03T04:14:46;85218.13;;;11.46;13.76
74090;BME280;62448;-26.094;27.994;2022-09-03T04:17:12;85218.14;;;11.70;13.45
74090;BME280;62448;-26.094;27.994;2022-09-03T04:19:37;85219.32;;;11.73;13.16
74090;BME280;62448;-26.094;27.994;2022-09-03T04:22:03;85222.86;;;12.40;12.95
74090;BME280;62448;-26.094;27.994;2022-09-03T04:24:28;85225.81;;;12.53;12.96
74090;BME280;62448;-26.094;27.994;2022-09-03T04:26:54;85232.69;;;12.22;13.16
74090;BME280;62448;-26.094;27.994;2022-09-03T04:29:18;85235.49;;;12.12;13.30
74090;BME280;62448;-26.094;27.994;2022-09-03T04:31:44;85237.03;;;11.36;13.56
74090;BME280;62448;-26.094;27.994;2022-09-03T04:34:09;85238.74;;;11.86;13.47
74090;BME280;62448;-26.094;27.994;2022-09-03T04:36:35;85239.69;;;10.81;13.66
74090;BME280;62448;-26.094;27.994;2022-09-03T04:39:01;85238.89;;;11.35;13.56
74090;BME280;62448;-26.094;27.994;2022-09-03T04:41:28;85241.77;;;11.36;13.58
74090;BME280;62448;-26.094;27.994;2022-09-03T04:43:52;85241.27;;;11.42;13.60
74090;BME280;62448;-26.094;27.994;2022-09-03T04:46:19;85240.18;;;11.55;13.55
74090;BME280;62448;-26.094;27.994;2022-09-03T04:48:46;85242.02;;;11.81;13.53
74090;BME280;62448;-26.094;27.994;2022-09-03T04:51:10;85243.91;;;11.12;13.67
74090;BME280;62448;-26.094;27.994;2022-09-03T04:53:35;85244.30;;;11.24;13.65
74090;BME280;62448;-26.094;27.994;2022-09-03T04:55:58;85243.16;;;11.95;13.51
74090;BME280;62448;-26.094;27.994;2022-09-03T04:58:24;85240.96;;;11.74;13.66
74090;BME280;62448;-26.094;27.994;2022-09-03T05:00:50;85247.64;;;11.16;13.69
74090;BME280;62448;-26.094;27.994;2022-09-03T05:03:15;85246.52;;;11.62;13.58
74090;BME280;62448;-26.094;27.994;2022-09-03T05:05:41;85253.70;;;11.32;13.57
74090;BME280;62448;-26.094;27.994;2022-09-03T05:08:06;85258.23;;;11.42;13.61
74090;BME280;62448;-26.094;27.994;2022-09-03T05:10:32;85259.16;;;11.78;13.56
74090;BME280;62448;-26.094;27.994;2022-09-03T05:13:00;85260.06;;;11.41;13.67
74090;BME280;62448;-26.094;27.994;2022-09-03T05:15:38;85258.46;;;12.21;13.59
74090;BME280;62448;-26.094;27.994;2022-09-03T05:18:03;85257.91;;;11.39;13.37
74090;BME280;62448;-26.094;27.994;2022-09-03T05:20:29;85262.06;;;11.99;13.03
74090;BME280;62448;-26.094;27.994;2022-09-03T05:22:53;85261.61;;;11.80;12.92
74090;BME280;62448;-26.094;27.994;2022-09-03T05:25:19;85266.12;;;12.25;12.95
74090;BME280;62448;-26.094;27.994;2022-09-03T05:27:45;85269.37;;;11.39;13.32
74090;BME280;62448;-26.094;27.994;2022-09-03T05:30:11;85271.32;;;11.60;13.46
74090;BME280;62448;-26.094;27.994;2022-09-03T05:32:35;85273.81;;;11.27;13.43
74090;BME280;62448;-26.094;27.994;2022-09-03T05:35:01;85271.87;;;11.55;13.58
74090;BME280;62448;-26.094;27.994;2022-09-03T05:37:28;85269.63;;;10.92;13.61
74090;BME280;62448;-26.094;27.994;2022-09-03T05:39:53;85271.97;;;11.39;13.62
74090;BME280;62448;-26.094;27.994;2022-09-03T05:42:18;85272.92;;;11.38;13.67
74090;BME280;62448;-26.094;27.994;2022-09-03T05:44:43;85275.78;;;11.48;13.71
74090;BME280;62448;-26.094;27.994;2022-09-03T05:47:09;85276.77;;;11.55;13.68
74090;BME280;62448;-26.094;27.994;2022-09-03T05:49:34;85281.11;;;11.04;14.01
74090;BME280;62448;-26.094;27.994;2022-09-03T05:52:00;85284.91;;;12.18;13.77
74090;BME280;62448;-26.094;27.994;2022-09-03T05:54:26;85285.69;;;11.46;13.98
74090;BME280;62448;-26.094;27.994;2022-09-03T05:56:52;85288.62;;;11.48;14.06
74090;BME280;62448;-26.094;27.994;2022-09-03T05:59:17;85290.91;;;11.53;14.24
74090;BME280;62448;-26.094;27.994;2022-09-03T06:01:43;85294.99;;;11.54;14.21
74090;BME280;62448;-26.094;27.994;2022-09-03T06:04:09;85294.23;;;11.71;14.18
74090;BME280;62448;-26.094;27.994;2022-09-03T06:06:34;85293.00;;;11.24;14.20
74090;BME280;62448;-26.094;27.994;2022-09-03T06:09:00;85293.01;;;11.59;14.20
74090;BME280;62448;-26.094;27.994;2022-09-03T06:11:24;85294.02;;;11.42;14.24
74090;BME280;62448;-26.094;27.994;2022-09-03T06:13:49;85295.14;;;11.22;14.21
74090;BME280;62448;-26.094;27.994;2022-09-03T06:16:15;85299.92;;;10.92;14.17
74090;BME280;62448;-26.094;27.994;2022-09-03T06:18:41;85305.99;;;11.61;13.74
74090;BME280;62448;-26.094;27.994;2022-09-03T06:21:07;85305.43;;;11.99;13.51
74090;BME280;62448;-26.094;27.994;2022-09-03T06:23:32;85307.53;;;12.28;13.38
74090;BME280;62448;-26.094;27.994;2022-09-03T06:26:01;85308.61;;;11.84;13.68
74090;BME280;62448;-26.094;27.994;2022-09-03T06:28:22;85310.82;;;12.10;13.82
74090;BME280;62448;-26.094;27.994;2022-09-03T06:30:47;85308.57;;;11.94;13.88
74090;BME280;62448;-26.094;27.994;2022-09-03T06:33:12;85309.87;;;11.57;13.96
74090;BME280;62448;-26.094;27.994;2022-09-03T06:35:38;85310.01;;;11.52;13.96
74090;BME280;62448;-26.094;27.994;2022-09-03T06:38:03;85306.89;;;11.50;14.02
74090;BME280;62448;-26.094;27.994;2022-09-03T06:40:29;85308.21;;;10.97;14.08
74090;BME280;62448;-26.094;27.994;2022-09-03T06:42:56;85310.34;;;11.51;14.02
74090;BME280;62448;-26.094;27.994;2022-09-03T06:45:20;85310.83;;;11.80;13.88
74090;BME280;62448;-26.094;27.994;2022-09-03T06:47:45;85311.52;;;11.11;13.84
74090;BME280;62448;-26.094;27.994;2022-09-03T06:50:10;85314.40;;;11.89;13.86
74090;BME280;62448;-26.094;27.994;2022-09-03T06:52:36;85315.87;;;11.44;14.03
74090;BME280;62448;-26.094;27.994;2022-09-03T06:55:01;85317.25;;;11.44;14.03
74090;BME280;62448;-26.094;27.994;2022-09-03T06:57:26;85317.62;;;11.42;14.08
74090;BME280;62448;-26.094;27.994;2022-09-03T06:59:52;85315.38;;;10.81;14.09
74090;BME280;62448;-26.094;27.994;2022-09-03T07:02:17;85313.98;;;10.73;14.16
74090;BME280;62448;-26.094;27.994;2022-09-03T07:04:42;85313.57;;;11.15;14.10
74090;BME280;62448;-26.094;27.994;2022-09-03T07:07:08;85312.92;;;11.35;13.80
74090;BME280;62448;-26.094;27.994;2022-09-03T07:09:32;85312.17;;;10.84;14.03
74090;BME280;62448;-26.094;27.994;2022-09-03T07:11:59;85317.02;;;11.09;14.06
74090;BME280;62448;-26.094;27.994;2022-09-03T07:14:23;85320.85;;;11.10;13.91
74090;BME280;62448;-26.094;27.994;2022-09-03T07:16:49;85320.51;;;10.50;13.85
74090;BME280;62448;-26.094;27.994;2022-09-03T07:19:15;85321.87;;;11.03;13.73
74090;BME280;62448;-26.094;27.994;2022-09-03T07:21:41;85322.79;;;12.09;13.30
74090;BME280;62448;-26.094;27.994;2022-09-03T07:24:06;85323.36;;;11.50;13.60
74090;BME280;62448;-26.094;27.994;2022-09-03T07:26:33;85327.18;;;11.60;13.79
74090;BME280;62448;-26.094;27.994;2022-09-03T07:28:57;85327.23;;;9.88;14.00
74090;BME280;62448;-26.094;27.994;2022-09-03T07:31:24;85334.01;;;10.89;13.79
74090;BME280;62448;-26.094;27.994;2022-09-03T07:33:47;85333.15;;;9.36;14.00
74090;BME280;62448;-26.094;27.994;2022-09-03T07:36:15;85331.33;;;10.11;13.91
74090;BME280;62448;-26.094;27.994;2022-09-03T07:38:38;85328.08;;;10.40;13.98
74090;BME280;62448;-26.094;27.994;2022-09-03T07:41:05;85325.50;;;10.56;14.05
74090;BME280;62448;-26.094;27.994;2022-09-03T07:43:33;85326.93;;;10.57;14.04
74090;BME280;62448;-26.094;27.994;2022-09-03T07:45:54;85325.37;;;10.34;14.06
74090;BME280;62448;-26.094;27.994;2022-09-03T07:48:19;85322.00;;;10.43;14.06
74090;BME280;62448;-26.094;27.994;2022-09-03T07:50:45;85321.77;;;10.63;14.02
74090;BME280;62448;-26.094;27.994;2022-09-03T07:53:10;85321.33;;;10.47;14.08
74090;BME280;62448;-26.094;27.994;2022-09-03T07:55:36;85316.43;;;10.00;14.14
74090;BME280;62448;-26.094;27.994;2022-09-03T07:58:01;85313.66;;;10.22;14.24
74090;BME280;62448;-26.094;27.994;2022-09-03T08:00:27;85310.12;;;9.95;14.31
74090;BME280;62448;-26.094;27.994;2022-09-03T08:02:52;85310.20;;;9.91;14.28
74090;BME280;62448;-26.094;27.994;2022-09-03T08:05:17;85307.74;;;10.12;14.26
74090;BME280;62448;-26.094;27.994;2022-09-03T08:07:42;85306.44;;;10.42;14.10
74090;BME280;62448;-26.094;27.994;2022-09-03T08:10:08;85301.81;;;10.68;14.06
74090;BME280;62448;-26.094;27.994;2022-09-03T08:12:33;85302.34;;;10.90;13.95
74090;BME280;62448;-26.094;27.994;2022-09-03T08:14:58;85302.28;;;10.35;14.08
74090;BME280;62448;-26.094;27.994;2022-09-03T08:17:24;85301.68;;;10.20;13.71
74090;BME280;62448;-26.094;27.994;2022-09-03T08:19:49;85296.02;;;10.94;13.50
74090;BME280;62448;-26.094;27.994;2022-09-03T08:22:14;85293.02;;;11.66;13.32
74090;BME280;62448;-26.094;27.994;2022-09-03T08:24:39;85285.56;;;11.37;13.23
74090;BME280;62448;-26.094;27.994;2022-09-03T08:27:05;85284.22;;;10.44;13.23
74090;BME280;62448;-26.094;27.994;2022-09-03T08:29:30;85283.37;;;11.18;13.05
74090;BME280;62448;-26.094;27.994;2022-09-03T08:31:55;85279.08;;;11.37;12.88
74090;BME280;62448;-26.094;27.994;2022-09-03T08:36:38;85273.14;;;11.70;13.06
74090;BME280;62448;-26.094;27.994;2022-09-03T08:38:42;85271.24;;;11.47;13.08
74090;BME280;62448;-26.094;27.994;2022-09-03T08:41:10;85268.77;;;11.80;12.99
74090;BME280;62448;-26.094;27.994;2022-09-03T08:43:38;85270.98;;;10.86;13.12
74090;BME280;62448;-26.094;27.994;2022-09-03T08:45:57;85265.24;;;12.15;13.04
74090;BME280;62448;-26.094;27.994;2022-09-03T08:48:24;85262.33;;;12.17;13.18
74090;BME280;62448;-26.094;27.994;2022-09-03T08:50:49;85260.26;;;11.70;13.30
74090;BME280;62448;-26.094;27.994;2022-09-03T08:53:18;85257.83;;;12.05;13.33
74090;BME280;62448;-26.094;27.994;2022-09-03T08:55:46;85255.67;;;12.07;13.36
74090;BME280;62448;-26.094;27.994;2022-09-03T08:58:07;85251.13;;;12.00;13.51
74090;BME280;62448;-26.094;27.994;2022-09-03T09:00:44;85249.78;;;12.37;13.34
74090;BME280;62448;-26.094;27.994;2022-09-03T09:03:06;85246.76;;;12.53;13.12
74090;BME280;62448;-26.094;27.994;2022-09-03T09:05:24;85243.76;;;12.73;13.05
74090;BME280;62448;-26.094;27.994;2022-09-03T09:07:52;85238.46;;;12.34;13.30
74090;BME280;62448;-26.094;27.994;2022-09-03T09:10:18;85233.62;;;12.85;13.03
74090;BME280;62448;-26.094;27.994;2022-09-03T09:12:44;85230.12;;;12.83;12.91
74090;BME280;62448;-26.094;27.994;2022-09-03T09:15:09;85225.82;;;12.77;13.03
74090;BME280;62448;-26.094;27.994;2022-09-03T09:17:40;85220.91;;;12.88;12.94
74090;BME280;62448;-26.094;27.994;2022-09-03T09:20:00;85217.28;;;12.73;13.00
74090;BME280;62448;-26.094;27.994;2022-09-03T09:22:26;85211.23;;;12.46;13.06
74090;BME280;62448;-26.094;27.994;2022-09-03T09:24:46;85211.58;;;12.83;12.80
74090;BME280;62448;-26.094;27.994;2022-09-03T09:27:16;85207.66;;;12.75;12.92
74090;BME280;62448;-26.094;27.994;2022-09-03T09:29:38;85201.76;;;12.55;12.99
74090;BME280;62448;-26.094;27.994;2022-09-03T09:32:02;85199.29;;;12.77;12.94
74090;BME280;62448;-26.094;27.994;2022-09-03T09:34:27;85194.22;;;12.83;12.92
74090;BME280;62448;-26.094;27.994;2022-09-03T09:36:55;85193.65;;;12.13;13.24
74090;BME280;62448;-26.094;27.994;2022-09-03T09:39:21;85190.65;;;12.53;12.93
74090;BME280;62448;-26.094;27.994;2022-09-03T09:41:57;85186.63;;;12.65;12.84
74090;BME280;62448;-26.094;27.994;2022-09-03T09:44:19;85180.97;;;13.10;12.76
74090;BME280;62448;-26.094;27.994;2022-09-03T09:46:37;85176.49;;;13.07;12.72
74090;BME280;62448;-26.094;27.994;2022-09-03T09:49:02;85174.39;;;13.04;12.76
74090;BME280;62448;-26.094;27.994;2022-09-03T09:51:30;85171.55;;;13.12;12.72
74090;BME280;62448;-26.094;27.994;2022-09-03T09:54:01;85168.29;;;12.77;12.79
74090;BME280;62448;-26.094;27.994;2022-09-03T09:56:22;85163.36;;;12.17;12.71
74090;BME280;62448;-26.094;27.994;2022-09-03T09:58:43;85158.98;;;12.85;12.51
74090;BME280;62448;-26.094;27.994;2022-09-03T10:01:13;85156.17;;;12.72;12.51
74090;BME280;62448;-26.094;27.994;2022-09-03T10:03:35;85153.69;;;12.65;12.47
74090;BME280;62448;-26.094;27.994;2022-09-03T10:06:03;85148.12;;;12.78;12.43
74090;BME280;62448;-26.094;27.994;2022-09-03T10:08:26;85143.64;;;12.74;12.36
74090;BME280;62448;-26.094;27.994;2022-09-03T10:10:53;85140.10;;;13.22;12.37
74090;BME280;62448;-26.094;27.994;2022-09-03T10:13:20;85134.44;;;13.07;12.37
74090;BME280;62448;-26.094;27.994;2022-09-03T10:15:47;85131.61;;;12.81;12.45
74090;BME280;62448;-26.094;27.994;2022-09-03T10:18:15;85129.09;;;13.01;12.37
74090;BME280;62448;-26.094;27.994;2022-09-03T10:20:41;85125.39;;;12.95;12.37
74090;BME280;62448;-26.094;27.994;2022-09-03T10:23:06;85120.30;;;13.37;12.32
74090;BME280;62448;-26.094;27.994;2022-09-03T10:25:32;85116.46;;;12.94;12.27
74090;BME280;62448;-26.094;27.994;2022-09-03T10:27:51;85117.62;;;13.54;12.27
74090;BME280;62448;-26.094;27.994;2022-09-03T10:30:15;85113.47;;;14.00;12.15
74090;BME280;62448;-26.094;27.994;2022-09-03T10:32:47;85111.45;;;13.64;12.26
74090;BME280;62448;-26.094;27.994;2022-09-03T10:35:12;85107.59;;;13.50;12.51
74090;BME280;62448;-26.094;27.994;2022-09-03T10:37:37;85102.28;;;12.36;12.62
74090;BME280;62448;-26.094;27.994;2022-09-03T10:40:08;85100.56;;;13.21;12.29
74090;BME280;62448;-26.094;27.994;2022-09-03T10:42:33;85098.06;;;13.77;12.19
74090;BME280;62448;-26.094;27.994;2022-09-03T10:45:00;85094.63;;;13.39;12.14
74090;BME280;62448;-26.094;27.994;2022-09-03T10:47:27;85090.62;;;13.07;12.53
74090;BME280;62448;-26.094;27.994;2022-09-03T10:49:48;85088.73;;;13.97;12.61
74090;BME280;62448;-26.094;27.994;2022-09-03T10:52:11;85083.99;;;13.71;12.76
74090;BME280;62448;-26.094;27.994;2022-09-03T10:54:41;85080.38;;;13.54;12.95
74090;BME280;62448;-26.094;27.994;2022-09-03T10:57:00;85078.61;;;14.02;12.87
74090;BME280;62448;-26.094;27.994;2022-09-03T10:59:30;85077.66;;;14.49;12.66
74090;BME280;62448;-26.094;27.994;2022-09-03T11:01:52;85076.42;;;14.03;12.88
74090;BME280;62448;-26.094;27.994;2022-09-03T11:04:22;85076.53;;;14.52;12.63
74090;BME280;62448;-26.094;27.994;2022-09-03T11:06:41;85070.77;;;14.44;12.30
74090;BME280;62448;-26.094;27.994;2022-09-03T11:09:10;85066.64;;;14.46;12.53
74090;BME280;62448;-26.094;27.994;2022-09-03T11:11:32;85066.49;;;14.52;12.66
74090;BME280;62448;-26.094;27.994;2022-09-03T11:13:57;85062.09;;;14.73;12.93
74090;BME280;62448;-26.094;27.994;2022-09-03T11:16:22;85058.68;;;14.58;13.09
74090;BME280;62448;-26.094;27.994;2022-09-03T11:18:48;85056.65;;;14.15;13.40
74090;BME280;62448;-26.094;27.994;2022-09-03T11:21:12;85050.51;;;14.46;13.41
74090;BME280;62448;-26.094;27.994;2022-09-03T11:23:39;85050.23;;;13.82;13.48
74090;BME280;62448;-26.094;27.994;2022-09-03T11:26:04;85042.74;;;14.62;13.40
74090;BME280;62448;-26.094;27.994;2022-09-03T11:28:36;85044.70;;;15.04;13.38
74090;BME280;62448;-26.094;27.994;2022-09-03T11:31:08;85040.89;;;14.97;13.78
74090;BME280;62448;-26.094;27.994;2022-09-03T11:33:20;85040.16;;;14.92;14.28
74090;BME280;62448;-26.094;27.994;2022-09-03T11:35:42;85036.81;;;14.36;14.77
74090;BME280;62448;-26.094;27.994;2022-09-03T11:38:20;85034.59;;;13.64;14.78
74090;BME280;62448;-26.094;27.994;2022-09-03T11:40:34;85035.64;;;14.41;14.71
74090;BME280;62448;-26.094;27.994;2022-09-03T11:43:24;85026.01;;;14.63;14.71
74090;BME280;62448;-26.094;27.994;2022-09-03T11:45:34;85023.08;;;14.47;14.55
74090;BME280;62448;-26.094;27.994;2022-09-03T11:47:50;85022.19;;;14.60;14.79
74090;BME280;62448;-26.094;27.994;2022-09-03T11:50:21;85017.08;;;15.01;14.45
74090;BME280;62448;-26.094;27.994;2022-09-03T11:52:40;85012.62;;;15.53;14.15
74090;BME280;62448;-26.094;27.994;2022-09-03T11:55:06;85010.03;;;15.20;14.00
74090;BME280;62448;-26.094;27.994;2022-09-03T11:57:31;85002.01;;;14.97;13.95
74090;BME280;62448;-26.094;27.994;2022-09-03T12:00:09;84997.21;;;15.29;13.92
74090;BME280;62448;-26.094;27.994;2022-09-03T12:02:26;84995.78;;;14.65;13.46
74090;BME280;62448;-26.094;27.994;2022-09-03T12:05:06;84990.28;;;15.45;13.71
74090;BME280;62448;-26.094;27.994;2022-09-03T12:07:23;84985.99;;;15.29;13.43
74090;BME280;62448;-26.094;27.994;2022-09-03T12:09:53;84982.10;;;15.40;13.40
74090;BME280;62448;-26.094;27.994;2022-09-03T12:12:19;84980.72;;;15.80;13.36
74090;BME280;62448;-26.094;27.994;2022-09-03T12:14:35;84978.80;;;14.82;13.48
74090;BME280;62448;-26.094;27.994;2022-09-03T12:17:04;84976.80;;;15.21;13.20
74090;BME280;62448;-26.094;27.994;2022-09-03T12:19:26;84971.08;;;15.35;13.10
74090;BME280;62448;-26.094;27.994;2022-09-03T12:21:47;84971.04;;;16.03;12.88
74090;BME280;62448;-26.094;27.994;2022-09-03T12:24:11;84968.64;;;15.69;12.94
74090;BME280;62448;-26.094;27.994;2022-09-03T12:26:39;84969.04;;;15.62;12.94
74090;BME280;62448;-26.094;27.994;2022-09-03T12:29:01;84967.95;;;15.59;12.81
74090;BME280;62448;-26.094;27.994;2022-09-03T12:31:28;84964.46;;;16.16;12.94